Time;durP1;ratioP1;P1;durP2;ratioP2;P2;SDS_P1;SDS_P2;PMS_P1;PMS_P2;Temp;Humidity;BMP_temperature;BMP_pressure;BME280_temperature;BME280_humidity;BME280_pressure;Samples;Min_cycle;Max_cycle;Signal;HPM_P1;HPM_P2
2023/03/09 00:00:58;;;;;;;24.55;14.48;;;2.40;86.70;;;;;;5117635;27;20031;-76
2023/03/09 00:03:24;;;;;;;24.38;14.07;;;2.30;86.70;;;;;;5119000;27;20393;-77
2023/03/09 00:05:58;;;;;;;23.52;15.00;;;2.30;86.40;;;;;;5118549;27;20050;-76
2023/03/09 00:08:24;;;;;;;27.13;16.00;;;2.30;86.60;;;;;;5102167;27;20047;-76
2023/03/09 00:10:52;;;;;;;24.10;14.85;;;2.30;86.70;;;;;;5119031;27;20042;-77
2023/03/09 00:13:21;;;;;;;26.30;15.80;;;2.30;86.40;;;;;;5118985;27;20047;-76
2023/03/09 00:15:50;;;;;;;24.25;14.63;;;2.30;86.40;;;;;;5118774;27;20516;-77
2023/03/09 00:18:20;;;;;;;25.90;14.80;;;2.20;86.50;;;;;;5102002;27;20382;-77
2023/03/09 00:20:46;;;;;;;26.67;15.63;;;2.20;86.50;;;;;;5118686;27;20096;-76
2023/03/09 00:23:12;;;;;;;28.27;16.15;;;2.20;86.60;;;;;;5118293;27;20043;-76
2023/03/09 00:25:39;;;;;;;23.95;14.77;;;2.20;86.80;;;;;;5118415;27;20758;-77
2023/03/09 00:28:05;;;;;;;26.30;14.73;;;2.20;87.00;;;;;;5101680;27;20038;-76
2023/03/09 00:30:31;;;;;;;22.77;13.93;;;2.20;87.20;;;;;;5118483;27;20042;-76
2023/03/09 00:32:57;;;;;;;24.58;14.07;;;2.20;87.40;;;;;;5118316;27;20501;-77
2023/03/09 00:35:23;;;;;;;22.75;14.23;;;2.20;86.90;;;;;;5118171;27;20051;-77
2023/03/09 00:37:48;;;;;;;24.15;14.20;;;2.20;87.30;;;;;;5084587;27;20042;-77
2023/03/09 00:40:14;;;;;;;20.95;13.75;;;2.20;87.20;;;;;;5101314;27;20035;-77
2023/03/09 00:42:44;;;;;;;22.92;13.07;;;2.20;87.10;;;;;;5118100;27;20035;-76
2023/03/09 00:45:11;;;;;;;20.52;12.77;;;2.10;86.80;;;;;;5118494;27;20146;-76
2023/03/09 00:47:38;;;;;;;24.23;13.82;;;2.10;86.50;;;;;;5101577;27;20104;-77
2023/03/09 00:50:06;;;;;;;21.55;14.32;;;2.10;86.60;;;;;;5118168;27;20039;-77
2023/03/09 00:52:32;;;;;;;24.27;14.30;;;2.00;86.70;;;;;;5118001;27;20490;-77
2023/03/09 00:54:58;;;;;;;22.52;14.20;;;1.90;86.70;;;;;;5101077;27;20036;-77
2023/03/09 00:57:25;;;;;;;23.73;14.18;;;1.90;87.00;;;;;;5118194;27;20035;-76
2023/03/09 00:59:51;;;;;;;23.65;13.40;;;1.90;87.20;;;;;;5118153;27;20039;-77
2023/03/09 01:02:18;;;;;;;20.95;12.27;;;1.80;87.00;;;;;;5101292;27;20070;-77
2023/03/09 01:04:45;;;;;;;21.23;12.35;;;1.80;87.10;;;;;;5118198;27;20494;-77
2023/03/09 01:07:10;;;;;;;19.15;12.18;;;1.70;87.10;;;;;;5100670;27;20432;-78
2023/03/09 01:09:37;;;;;;;17.77;11.85;;;1.70;87.00;;;;;;5100776;27;20047;-77
2023/03/09 01:12:04;;;;;;;19.55;11.98;;;1.70;87.00;;;;;;5100677;27;20039;-76
2023/03/09 01:14:30;;;;;;;21.60;12.30;;;1.60;86.90;;;;;;5117732;27;20494;-77
2023/03/09 01:16:55;;;;;;;18.15;11.93;;;1.50;86.90;;;;;;5118093;27;20039;-77
2023/03/09 01:19:21;;;;;;;21.63;12.65;;;1.40;87.10;;;;;;5117768;27;20035;-77
2023/03/09 01:21:47;;;;;;;19.45;12.23;;;1.40;87.10;;;;;;5117463;27;20035;-76
2023/03/09 01:24:13;;;;;;;21.60;12.25;;;1.30;87.00;;;;;;5083850;27;20115;-77
2023/03/09 01:26:38;;;;;;;19.48;12.07;;;1.20;87.10;;;;;;5100283;27;20076;-76
2023/03/09 01:29:04;;;;;;;20.38;12.23;;;1.20;87.20;;;;;;5100222;27;20086;-76
2023/03/09 01:31:30;;;;;;;20.67;11.95;;;1.20;87.30;;;;;;5117425;27;20047;-77
2023/03/09 01:33:55;;;;;;;19.83;12.23;;;1.10;87.60;;;;;;5100644;27;20035;-76
2023/03/09 01:36:21;;;;;;;17.73;11.10;;;1.10;87.70;;;;;;5101025;27;20479;-77
2023/03/09 01:38:48;;;;;;;20.83;11.93;;;1.10;87.70;;;;;;5118320;27;20046;-76
2023/03/09 01:41:16;;;;;;;18.95;12.32;;;1.10;87.90;;;;;;5102384;27;20039;-78
2023/03/09 01:43:45;;;;;;;20.52;12.55;;;1.10;88.10;;;;;;5118921;27;20046;-79
2023/03/09 01:46:36;;;;;;;19.25;12.63;;;1.10;88.10;;;;;;5117597;27;20444;-76
2023/03/09 01:49:27;;;;;;;20.83;11.88;;;1.00;88.10;;;;;;5117191;27;20039;-76
2023/03/09 01:52:05;;;;;;;18.65;11.75;;;1.00;88.10;;;;;;5100076;27;20481;-76
2023/03/09 01:54:44;;;;;;;19.40;11.13;;;1.00;88.10;;;;;;5100377;27;20088;-77
2023/03/09 01:57:30;;;;;;;19.42;11.95;;;1.00;88.30;;;;;;5116866;27;20035;-77
2023/03/09 02:00:08;;;;;;;20.25;11.70;;;1.00;88.30;;;;;;5116204;27;20049;-77
2023/03/09 02:02:39;;;;;;;18.13;11.60;;;1.00;88.40;;;;;;5116956;27;20103;-76
2023/03/09 02:05:10;;;;;;;21.65;11.88;;;1.00;88.60;;;;;;5117012;27;20043;-77
2023/03/09 02:07:39;;;;;;;21.67;11.77;;;1.00;88.60;;;;;;5113278;28;20411;-77
2023/03/09 02:10:07;;;;;;;19.88;11.98;;;1.00;88.70;;;;;;5096794;28;20521;-77
2023/03/09 02:12:34;;;;;;;19.90;12.20;;;1.10;88.80;;;;;;5113417;28;20522;-77
2023/03/09 02:15:03;;;;;;;17.80;11.65;;;1.10;89.00;;;;;;5096174;28;20043;-76
2023/03/09 02:17:29;;;;;;;17.73;11.25;;;1.10;89.00;;;;;;5113466;28;20383;-76
2023/03/09 02:20:20;;;;;;;16.02;10.77;;;1.10;88.90;;;;;;5113383;28;20051;-77
2023/03/09 02:22:47;;;;;;;18.73;11.25;;;1.10;88.70;;;;;;5095635;28;20436;-76
2023/03/09 02:25:15;;;;;;;20.90;12.13;;;1.10;88.80;;;;;;5112628;28;20488;-76
2023/03/09 02:27:41;;;;;;;19.98;11.13;;;1.10;88.90;;;;;;5112942;28;20051;-77
2023/03/09 02:30:08;;;;;;;19.27;11.38;;;1.10;89.00;;;;;;5096228;28;20044;-77
2023/03/09 02:32:34;;;;;;;17.98;11.20;;;1.20;88.80;;;;;;5112799;28;20039;-77
2023/03/09 02:35:00;;;;;;;20.02;12.05;;;1.20;88.90;;;;;;5078956;28;20395;-76
2023/03/09 02:37:32;;;;;;;19.17;11.52;;;1.20;88.90;;;;;;5112983;28;20102;-76
2023/03/09 02:40:10;;;;;;;20.58;11.93;;;1.20;88.90;;;;;;5096085;28;20035;-77
2023/03/09 02:42:37;;;;;;;21.02;12.95;;;1.20;88.70;;;;;;5112924;28;20508;-77
2023/03/09 02:45:03;;;;;;;23.45;13.30;;;1.30;88.90;;;;;;5112828;28;20044;-77
2023/03/09 02:47:29;;;;;;;19.70;11.02;;;1.30;88.90;;;;;;5112680;28;20632;-77
2023/03/09 02:49:55;;;;;;;20.10;11.98;;;1.30;88.80;;;;;;5112506;28;20123;-76
2023/03/09 02:52:20;;;;;;;21.33;12.10;;;1.30;88.90;;;;;;5095719;28;20403;-77
2023/03/09 02:54:46;;;;;;;21.77;14.02;;;1.30;88.90;;;;;;5062176;28;20168;-77
2023/03/09 02:57:13;;;;;;;23.10;11.85;;;1.30;88.90;;;;;;5112610;28;20125;-77
2023/03/09 02:59:38;;;;;;;20.08;13.00;;;1.30;88.70;;;;;;5112439;28;20036;-76
2023/03/09 03:02:04;;;;;;;21.75;12.50;;;1.30;88.90;;;;;;5095942;28;20062;-77
2023/03/09 03:04:30;;;;;;;21.58;12.27;;;1.30;88.90;;;;;;5097705;28;20059;-77
2023/03/09 03:06:56;;;;;;;20.75;12.10;;;1.40;88.70;;;;;;5112291;28;20051;-77
2023/03/09 03:09:22;;;;;;;21.48;12.65;;;1.40;88.90;;;;;;5113182;28;20054;-77
2023/03/09 03:11:48;;;;;;;22.15;12.88;;;1.30;89.00;;;;;;5112619;28;20043;-77
2023/03/09 03:14:13;;;;;;;21.13;13.48;;;1.40;89.00;;;;;;5095272;28;20047;-77
2023/03/09 03:16:39;;;;;;;23.35;13.80;;;1.40;89.00;;;;;;5095525;28;20061;-77
2023/03/09 03:19:05;;;;;;;20.75;13.05;;;1.40;88.90;;;;;;5095437;28;20092;-77
2023/03/09 03:21:30;;;;;;;16.13;11.00;;;1.30;89.10;;;;;;5112416;28;20046;-77
2023/03/09 03:23:56;;;;;;;21.35;13.00;;;1.30;88.90;;;;;;5078546;28;20047;-77
2023/03/09 03:26:22;;;;;;;22.00;13.48;;;1.40;88.90;;;;;;5112471;28;20046;-77
2023/03/09 03:28:47;;;;;;;26.45;13.63;;;1.30;89.00;;;;;;5078468;28;20119;-77
2023/03/09 03:31:13;;;;;;;21.80;12.65;;;1.40;89.00;;;;;;5112212;28;20054;-77
2023/03/09 03:33:39;;;;;;;21.45;13.07;;;1.40;89.20;;;;;;5095227;28;20043;-76
2023/03/09 03:36:06;;;;;;;21.52;13.85;;;1.40;88.80;;;;;;5098494;28;20043;-77
2023/03/09 03:38:31;;;;;;;26.40;14.82;;;1.40;88.70;;;;;;5116151;28;20042;-76
2023/03/09 03:40:57;;;;;;;24.42;14.73;;;1.40;88.90;;;;;;5099231;28;20027;-77
2023/03/09 03:43:23;;;;;;;22.95;13.80;;;1.40;88.80;;;;;;5116051;28;20039;-77
2023/03/09 03:45:48;;;;;;;23.88;14.27;;;1.40;88.70;;;;;;5116104;28;20032;-77
2023/03/09 03:48:14;;;;;;;24.38;14.63;;;1.40;88.90;;;;;;5099340;28;20360;-77
2023/03/09 03:50:40;;;;;;;24.85;13.68;;;1.40;88.90;;;;;;5099075;28;20395;-77
2023/03/09 03:53:06;;;;;;;25.25;15.07;;;1.40;88.90;;;;;;5115922;28;20074;-77
2023/03/09 03:55:32;;;;;;;24.80;14.18;;;1.30;88.80;;;;;;5116007;28;20043;-76
2023/03/09 03:57:58;;;;;;;26.58;15.02;;;1.30;88.90;;;;;;5098812;28;20126;-77
2023/03/09 04:00:24;;;;;;;22.98;14.20;;;1.30;88.90;;;;;;5082170;28;20135;-76
2023/03/09 04:02:50;;;;;;;22.65;13.55;;;1.30;88.90;;;;;;5098916;28;20036;-76
2023/03/09 04:05:16;;;;;;;23.00;13.95;;;1.20;89.00;;;;;;5098737;28;20039;-77
2023/03/09 04:07:42;;;;;;;25.95;15.20;;;1.20;89.10;;;;;;5098707;28;20056;-76
2023/03/09 04:10:08;;;;;;;24.05;15.07;;;1.20;89.20;;;;;;5116108;28;20384;-77
2023/03/09 04:12:34;;;;;;;23.33;13.55;;;1.20;89.20;;;;;;5081859;28;20036;-77
2023/03/09 04:15:00;;;;;;;23.63;14.45;;;1.20;89.20;;;;;;5115196;28;20042;-77
2023/03/09 04:17:26;;;;;;;22.63;13.60;;;1.20;89.20;;;;;;5098480;28;20104;-77
2023/03/09 04:19:51;;;;;;;25.40;14.45;;;1.10;89.20;;;;;;5115715;28;20028;-77
2023/03/09 04:22:17;;;;;;;22.83;13.88;;;1.10;89.40;;;;;;5098496;28;20531;-77
2023/03/09 04:24:43;;;;;;;27.23;14.70;;;1.10;89.30;;;;;;5098286;28;20044;-77
2023/03/09 04:27:08;;;;;;;23.63;14.18;;;1.10;89.30;;;;;;5115646;28;20173;-77
2023/03/09 04:29:34;;;;;;;27.05;15.57;;;1.00;89.20;;;;;;5081789;28;20047;-77
2023/03/09 04:31:59;;;;;;;23.38;14.15;;;1.00;89.30;;;;;;5115370;28;20511;-77
2023/03/09 04:34:25;;;;;;;26.60;14.88;;;1.00;89.20;;;;;;5115188;28;20039;-77
2023/03/09 04:36:51;;;;;;;26.02;14.25;;;1.00;89.20;;;;;;5098454;28;20042;-77
2023/03/09 04:39:16;;;;;;;25.65;15.30;;;1.00;89.20;;;;;;5098213;28;20512;-78
2023/03/09 04:41:42;;;;;;;26.33;15.23;;;1.00;89.20;;;;;;5097974;28;20040;-78
2023/03/09 04:44:08;;;;;;;28.60;16.77;;;1.00;89.30;;;;;;5115718;28;20043;-77
2023/03/09 04:46:33;;;;;;;26.58;15.27;;;1.00;89.30;;;;;;5113838;28;20507;-77
2023/03/09 04:48:59;;;;;;;28.25;15.52;;;1.00;89.40;;;;;;5114921;28;20118;-77
2023/03/09 04:51:25;;;;;;;24.45;14.35;;;1.00;89.30;;;;;;5097985;28;20122;-78
2023/03/09 04:53:51;;;;;;;26.90;15.85;;;0.90;89.40;;;;;;5114937;28;20089;-77
2023/03/09 04:56:16;;;;;;;29.25;15.85;;;0.90;89.40;;;;;;5114789;28;20502;-78
2023/03/09 04:58:42;;;;;;;26.15;16.45;;;0.90;89.60;;;;;;5097582;28;20039;-77
2023/03/09 05:01:08;;;;;;;27.45;15.68;;;0.90;89.50;;;;;;5081134;28;20108;-78
2023/03/09 05:03:33;;;;;;;29.00;16.77;;;0.90;89.50;;;;;;5080910;28;20483;-77
2023/03/09 05:05:59;;;;;;;25.92;15.90;;;0.90;89.60;;;;;;5114417;28;20068;-77
2023/03/09 05:08:26;;;;;;;28.10;16.17;;;0.90;89.60;;;;;;5114476;28;20560;-77
2023/03/09 05:10:52;;;;;;;27.85;15.55;;;0.90;89.80;;;;;;5114504;28;20040;-77
2023/03/09 05:13:17;;;;;;;28.60;15.68;;;0.90;89.70;;;;;;5114246;28;20424;-77
2023/03/09 05:15:43;;;;;;;26.48;15.52;;;0.90;89.80;;;;;;5114491;28;20039;-77
2023/03/09 05:18:09;;;;;;;27.67;16.58;;;0.90;89.70;;;;;;5097469;28;20040;-78
2023/03/09 05:20:37;;;;;;;28.27;15.82;;;0.90;89.70;;;;;;5097484;28;20126;-77
2023/03/09 05:23:03;;;;;;;32.83;17.23;;;0.90;89.80;;;;;;5097667;28;20032;-77
2023/03/09 05:25:29;;;;;;;29.10;16.80;;;0.90;89.70;;;;;;5080588;28;20131;-77
2023/03/09 05:27:55;;;;;;;34.88;18.25;;;0.90;89.70;;;;;;5114223;28;20073;-77
2023/03/09 05:30:20;;;;;;;29.92;17.30;;;0.90;89.70;;;;;;5114229;28;20040;-77
2023/03/09 05:32:46;;;;;;;29.73;17.52;;;0.90;89.70;;;;;;5097065;28;20087;-75
2023/03/09 05:35:12;;;;;;;31.52;16.67;;;0.90;89.80;;;;;;5114024;28;20043;-76
2023/03/09 05:37:38;;;;;;;30.10;16.58;;;0.90;89.80;;;;;;5097065;28;20028;-76
2023/03/09 05:40:05;;;;;;;29.45;16.77;;;0.90;89.90;;;;;;5097138;28;20494;-76
2023/03/09 05:42:31;;;;;;;28.58;16.73;;;1.00;89.70;;;;;;5113847;28;20043;-76
2023/03/09 05:44:57;;;;;;;29.77;16.52;;;0.90;89.60;;;;;;5096997;28;20035;-76
2023/03/09 05:47:23;;;;;;;33.38;18.45;;;0.90;89.60;;;;;;5114581;28;20446;-76
2023/03/09 05:49:49;;;;;;;28.92;17.88;;;0.90;89.50;;;;;;5114092;28;20040;-75
2023/03/09 05:52:15;;;;;;;30.50;17.83;;;1.00;89.30;;;;;;5097167;28;20046;-75
2023/03/09 05:54:41;;;;;;;31.42;17.95;;;0.90;89.30;;;;;;5097742;28;20047;-75
2023/03/09 05:57:07;;;;;;;30.77;19.10;;;1.00;89.30;;;;;;5114272;28;20066;-75
2023/03/09 05:59:32;;;;;;;30.52;17.75;;;0.90;89.20;;;;;;5113837;28;20392;-74
2023/03/09 06:01:58;;;;;;;29.70;18.00;;;0.90;89.30;;;;;;5096238;28;20036;-74
2023/03/09 06:04:24;;;;;;;28.75;18.17;;;0.90;89.40;;;;;;5095709;28;20082;-76
2023/03/09 06:06:49;;;;;;;32.30;17.90;;;0.90;89.30;;;;;;5112793;28;20446;-75
2023/03/09 06:09:15;;;;;;;29.40;17.60;;;0.90;89.30;;;;;;5112760;28;20078;-75
2023/03/09 06:11:41;;;;;;;33.10;18.45;;;0.90;89.40;;;;;;5078975;28;20092;-75
2023/03/09 06:14:08;;;;;;;30.52;18.63;;;0.90;89.40;;;;;;5113195;28;20040;-75
2023/03/09 06:16:34;;;;;;;31.63;18.67;;;0.90;89.30;;;;;;5113130;28;20039;-74
2023/03/09 06:18:59;;;;;;;27.40;16.77;;;0.90;89.40;;;;;;5096054;28;20036;-75
2023/03/09 06:21:25;;;;;;;29.30;16.27;;;0.80;89.30;;;;;;5112977;28;20043;-75
2023/03/09 06:23:55;;;;;;;28.42;16.27;;;0.80;89.30;;;;;;5095000;28;20402;-76
2023/03/09 06:26:22;;;;;;;26.75;15.25;;;0.90;89.40;;;;;;5054438;28;20476;-75
2023/03/09 06:28:48;;;;;;;34.20;18.95;;;0.90;89.30;;;;;;5079029;28;20108;-75
2023/03/09 06:31:15;;;;;;;29.63;18.05;;;0.90;89.50;;;;;;5065843;28;20127;-74
2023/03/09 06:33:42;;;;;;;30.20;18.65;;;0.80;89.60;;;;;;5075820;28;20040;-76
2023/03/09 06:36:10;;;;;;;32.00;17.63;;;0.80;89.50;;;;;;5084393;28;20073;-74
2023/03/09 06:38:35;;;;;;;29.98;17.08;;;0.80;89.50;;;;;;5075764;28;20433;-76
2023/03/09 06:41:01;;;;;;;29.58;16.73;;;0.80;89.40;;;;;;5075495;28;20036;-74
2023/03/09 06:43:27;;;;;;;30.17;18.25;;;0.80;89.50;;;;;;5075590;28;20128;-74
2023/03/09 06:45:53;;;;;;;28.45;16.77;;;0.80;89.60;;;;;;5092375;28;20067;-75
2023/03/09 06:48:19;;;;;;;31.52;17.58;;;0.70;89.60;;;;;;5092264;28;20040;-73
2023/03/09 06:50:45;;;;;;;31.95;17.88;;;0.70;89.70;;;;;;5070092;28;20031;-74
2023/03/09 06:53:12;;;;;;;28.75;16.65;;;0.70;89.70;;;;;;5079789;28;20028;-74
2023/03/09 06:55:39;;;;;;;29.35;18.40;;;0.70;89.70;;;;;;5079793;28;20503;-74
2023/03/09 06:58:04;;;;;;;28.42;16.23;;;0.70;89.60;;;;;;5082184;28;20036;-75
2023/03/09 07:00:30;;;;;;;31.15;17.40;;;0.70;89.60;;;;;;5092291;28;20115;-74
2023/03/09 07:02:56;;;;;;;25.90;15.70;;;0.70;89.60;;;;;;5092163;28;20035;-75
2023/03/09 07:05:22;;;;;;;27.85;17.20;;;0.70;89.70;;;;;;5091844;28;20050;-75
2023/03/09 07:07:48;;;;;;;31.08;17.63;;;0.70;89.80;;;;;;5111200;28;20126;-75
2023/03/09 07:10:14;;;;;;;30.90;17.80;;;0.70;90.10;;;;;;5077880;28;20047;-76
2023/03/09 07:12:40;;;;;;;28.83;17.30;;;0.80;90.10;;;;;;5112382;28;20043;-75
2023/03/09 07:15:06;;;;;;;30.10;17.02;;;0.80;90.10;;;;;;5111988;28;20076;-76
2023/03/09 07:17:33;;;;;;;29.23;18.05;;;0.90;90.30;;;;;;5095437;28;20050;-76
2023/03/09 07:19:58;;;;;;;27.58;16.50;;;0.90;90.20;;;;;;5112251;28;20039;-76
2023/03/09 07:22:24;;;;;;;30.45;17.27;;;0.90;90.10;;;;;;5078455;28;20036;-75
2023/03/09 07:24:50;;;;;;;28.30;17.63;;;0.90;90.30;;;;;;5112302;28;20051;-76
2023/03/09 07:27:18;;;;;;;28.10;17.73;;;1.00;90.50;;;;;;5112208;28;20040;-75
2023/03/09 07:29:45;;;;;;;24.52;15.25;;;1.10;90.60;;;;;;5112023;28;20075;-75
2023/03/09 07:32:11;;;;;;;21.50;13.60;;;1.10;90.50;;;;;;5095263;28;20069;-76
2023/03/09 07:34:37;;;;;;;28.88;18.90;;;1.30;90.70;;;;;;5094982;28;20043;-76
2023/03/09 07:37:03;;;;;;;27.77;16.42;;;1.40;90.70;;;;;;5112212;28;20082;-76
2023/03/09 07:39:29;;;;;;;25.50;15.85;;;1.50;90.60;;;;;;5095157;28;20035;-76
2023/03/09 07:41:55;;;;;;;27.95;15.90;;;1.50;90.40;;;;;;5112046;28;20070;-75
2023/03/09 07:44:21;;;;;;;27.27;16.65;;;1.60;90.30;;;;;;5095556;28;20043;-75
2023/03/09 07:46:47;;;;;;;33.08;17.23;;;1.70;90.40;;;;;;5095209;28;20035;-75
2023/03/09 07:49:13;;;;;;;29.65;17.38;;;1.70;90.10;;;;;;5094930;28;20531;-76
2023/03/09 07:51:38;;;;;;;27.42;15.98;;;1.80;90.00;;;;;;5095389;28;20039;-75
2023/03/09 07:54:06;;;;;;;27.48;16.50;;;1.80;89.90;;;;;;5111684;28;20491;-76
2023/03/09 07:56:32;;;;;;;26.40;16.35;;;1.80;89.90;;;;;;5094678;28;20084;-76
2023/03/09 07:58:58;;;;;;;24.33;14.85;;;1.90;89.80;;;;;;5111447;28;20440;-76
2023/03/09 08:01:24;;;;;;;26.42;16.15;;;1.90;89.80;;;;;;5111928;28;20043;-74
2023/03/09 08:03:49;;;;;;;23.88;15.23;;;2.00;89.80;;;;;;5094538;28;20123;-76
2023/03/09 08:06:16;;;;;;;26.50;15.98;;;2.10;89.70;;;;;;5094612;28;20135;-75
2023/03/09 08:08:42;;;;;;;23.58;14.80;;;2.10;89.50;;;;;;5111553;28;20122;-75
2023/03/09 08:11:08;;;;;;;24.13;13.02;;;2.10;89.40;;;;;;5078012;28;20534;-75
2023/03/09 08:13:34;;;;;;;23.95;15.30;;;2.20;89.40;;;;;;5111658;28;20067;-75
2023/03/09 08:16:04;;;;;;;22.23;13.88;;;2.20;89.30;;;;;;5112897;28;20556;-75
2023/03/09 08:18:30;;;;;;;26.77;16.42;;;2.20;89.10;;;;;;5112471;28;20040;-75
2023/03/09 08:21:06;;;;;;;20.70;13.68;;;2.30;89.10;;;;;;5112307;28;20456;-75
2023/03/09 08:23:35;;;;;;;21.13;14.10;;;2.40;89.10;;;;;;5114817;28;20043;-74
2023/03/09 08:26:01;;;;;;;22.55;14.15;;;2.40;89.00;;;;;;5098057;28;20032;-74
2023/03/09 08:28:27;;;;;;;20.48;13.35;;;2.50;88.80;;;;;;5097622;28;20031;-74
2023/03/09 08:30:53;;;;;;;19.50;12.77;;;2.50;88.70;;;;;;5115237;28;20042;-74
2023/03/09 08:33:19;;;;;;;20.60;13.13;;;2.60;88.70;;;;;;5114991;28;20403;-75
2023/03/09 08:35:44;;;;;;;20.17;12.45;;;2.60;88.60;;;;;;5114997;28;20501;-75
2023/03/09 08:38:10;;;;;;;20.05;11.98;;;2.70;88.50;;;;;;5115058;28;20092;-75
2023/03/09 08:40:37;;;;;;;21.17;13.68;;;2.80;88.50;;;;;;5097758;28;20377;-75
2023/03/09 08:43:03;;;;;;;17.08;12.23;;;2.90;88.40;;;;;;5081135;28;20044;-75
2023/03/09 08:45:29;;;;;;;19.73;12.13;;;3.00;88.40;;;;;;5097929;28;20048;-75
2023/03/09 08:47:55;;;;;;;20.80;12.43;;;3.00;87.90;;;;;;5098042;28;20038;-75
2023/03/09 08:50:20;;;;;;;16.25;10.75;;;3.10;87.90;;;;;;5081011;28;20097;-76
2023/03/09 08:52:46;;;;;;;15.90;11.00;;;3.10;87.80;;;;;;5097829;28;20455;-75
2023/03/09 08:55:12;;;;;;;17.67;10.85;;;3.30;87.70;;;;;;5097539;28;20084;-75
2023/03/09 08:57:38;;;;;;;14.55;10.48;;;3.40;87.50;;;;;;5114795;28;20081;-75
2023/03/09 09:00:05;;;;;;;17.33;11.10;;;3.50;87.30;;;;;;5080951;28;20035;-75
2023/03/09 09:02:31;;;;;;;18.30;11.65;;;3.60;87.30;;;;;;5114718;28;20090;-75
2023/03/09 09:04:57;;;;;;;14.55;9.45;;;3.60;87.00;;;;;;5080460;28;20036;-75
2023/03/09 09:07:22;;;;;;;17.75;10.77;;;3.80;86.90;;;;;;5131554;27;20520;-76
2023/03/09 09:09:48;;;;;;;15.57;10.20;;;3.90;86.80;;;;;;5114326;28;20035;-76
2023/03/09 09:12:14;;;;;;;15.45;10.07;;;4.00;86.40;;;;;;5114332;28;20044;-77
2023/03/09 09:14:40;;;;;;;15.38;9.50;;;4.00;86.20;;;;;;5097264;28;20044;-77
2023/03/09 09:17:11;;;;;;;16.65;10.60;;;4.10;85.90;;;;;;5097478;28;20027;-76
2023/03/09 09:19:39;;;;;;;18.80;10.85;;;4.10;85.50;;;;;;5114594;28;20031;-76
2023/03/09 09:22:06;;;;;;;17.85;11.13;;;4.10;85.40;;;;;;5080878;28;20032;-78
2023/03/09 09:24:38;;;;;;;19.33;11.88;;;4.20;85.30;;;;;;5114337;28;20122;-77
2023/03/09 09:27:05;;;;;;;18.70;11.65;;;4.20;85.10;;;;;;5114548;28;20452;-77
2023/03/09 09:29:32;;;;;;;14.45;10.15;;;4.20;84.60;;;;;;5114090;28;20403;-77
2023/03/09 09:31:58;;;;;;;16.30;10.25;;;4.20;84.50;;;;;;5114169;28;20039;-78
2023/03/09 09:34:24;;;;;;;12.43;9.02;;;4.20;84.40;;;;;;5079786;28;20505;-77
2023/03/09 09:36:50;;;;;;;16.63;10.00;;;4.20;84.40;;;;;;5113760;28;20081;-77
2023/03/09 09:39:16;;;;;;;13.70;9.15;;;4.30;84.20;;;;;;5096861;28;20042;-77
2023/03/09 09:41:44;;;;;;;12.20;8.60;;;4.30;84.10;;;;;;5097180;28;20126;-77
2023/03/09 09:44:24;;;;;;;12.75;8.43;;;4.40;83.80;;;;;;5114033;28;20391;-77
2023/03/09 09:46:54;;;;;;;14.25;10.30;;;4.40;83.60;;;;;;5113731;28;20474;-78
2023/03/09 09:49:23;;;;;;;12.27;8.98;;;4.50;83.50;;;;;;5113840;28;20047;-77
2023/03/09 09:52:09;;;;;;;14.27;8.43;;;4.60;83.50;;;;;;5097118;28;20035;-78
2023/03/09 09:54:56;;;;;;;12.25;8.38;;;4.70;83.40;;;;;;5096547;28;20040;-77
2023/03/09 09:57:38;;;;;;;12.30;9.30;;;4.70;82.90;;;;;;5113725;28;20081;-77
2023/03/09 10:00:26;;;;;;;11.73;8.45;;;4.70;82.40;;;;;;5096612;28;20047;-76
2023/03/09 10:03:29;;;;;;;11.15;8.40;;;4.70;82.20;;;;;;5096463;28;20040;-76
2023/03/09 10:06:18;;;;;;;13.50;8.85;;;4.60;81.70;;;;;;5114589;27;20052;-77
2023/03/09 10:08:53;;;;;;;12.02;8.68;;;4.70;81.90;;;;;;5117172;27;20043;-75
2023/03/09 10:11:22;;;;;;;13.07;8.93;;;4.80;81.80;;;;;;5117286;27;20478;-77
2023/03/09 10:13:54;;;;;;;11.30;8.02;;;5.00;81.60;;;;;;5117695;27;20533;-77
2023/03/09 10:16:30;;;;;;;10.32;8.20;;;5.20;81.40;;;;;;5118100;27;20035;-77
2023/03/09 10:18:59;;;;;;;12.68;9.40;;;5.40;80.70;;;;;;5101857;27;20039;-79
2023/03/09 10:21:42;;;;;;;13.57;8.05;;;5.50;80.30;;;;;;5121880;27;20038;-80
2023/03/09 10:24:24;;;;;;;9.63;7.68;;;5.60;80.50;;;;;;5118136;27;20046;-78
2023/03/09 10:27:11;;;;;;;10.18;7.47;;;5.60;80.10;;;;;;5116525;27;20074;-78
2023/03/09 10:30:04;;;;;;;10.80;8.18;;;5.60;79.60;;;;;;5116599;27;20047;-77
2023/03/09 10:32:49;;;;;;;12.80;7.75;;;5.60;79.20;;;;;;5116525;27;20042;-78
2023/03/09 10:35:41;;;;;;;12.05;7.82;;;5.60;78.60;;;;;;5116323;27;20074;-78
2023/03/09 10:38:15;;;;;;;11.95;7.85;;;5.50;77.90;;;;;;5116277;27;20043;-78
2023/03/09 10:40:46;;;;;;;11.40;7.63;;;5.50;77.90;;;;;;5116375;27;20031;-78
2023/03/09 10:43:23;;;;;;;10.93;7.45;;;5.50;78.00;;;;;;5099535;27;20039;-78
2023/03/09 10:45:49;;;;;;;12.32;9.13;;;5.50;78.00;;;;;;5115361;27;20039;-79
2023/03/09 10:48:19;;;;;;;11.63;9.05;;;5.40;77.50;;;;;;5099533;27;20035;-77
2023/03/09 10:51:03;;;;;;;13.52;8.75;;;5.40;78.10;;;;;;5099149;27;20122;-78
2023/03/09 10:53:38;;;;;;;11.68;8.02;;;5.40;78.10;;;;;;5116342;27;20430;-79
2023/03/09 10:56:25;;;;;;;11.02;7.00;;;5.40;78.30;;;;;;5099007;27;20039;-79
2023/03/09 10:59:08;;;;;;;12.65;7.93;;;5.40;78.10;;;;;;5115871;27;20035;-78
2023/03/09 11:01:46;;;;;;;11.00;7.22;;;5.30;77.20;;;;;;5116097;28;20035;-78
2023/03/09 11:04:24;;;;;;;9.70;7.38;;;5.30;77.60;;;;;;5099228;28;20046;-78
2023/03/09 11:06:55;;;;;;;10.20;7.10;;;5.40;77.80;;;;;;5115993;28;20441;-77
2023/03/09 11:09:34;;;;;;;9.57;6.82;;;5.30;77.40;;;;;;5099113;28;20043;-78
2023/03/09 11:12:35;;;;;;;12.90;8.25;;;5.30;77.20;;;;;;5099241;28;20070;-78
2023/03/09 11:15:22;;;;;;;10.27;7.65;;;5.30;77.70;;;;;;5112634;28;20497;-77
2023/03/09 11:17:48;;;;;;;10.48;7.43;;;5.30;77.90;;;;;;5098333;28;20035;-78
2023/03/09 11:20:34;;;;;;;10.30;7.40;;;5.40;77.70;;;;;;5116017;28;20092;-78
2023/03/09 11:23:17;;;;;;;9.98;7.35;;;5.40;77.80;;;;;;5116066;28;20117;-77
2023/03/09 11:25:55;;;;;;;13.52;7.45;;;5.40;77.70;;;;;;5098706;28;20043;-78
2023/03/09 11:28:23;;;;;;;10.55;7.85;;;5.30;77.10;;;;;;5116267;28;20397;-78
2023/03/09 11:30:52;;;;;;;9.95;7.28;;;5.30;77.70;;;;;;5115701;28;20039;-77
2023/03/09 11:33:19;;;;;;;9.15;7.07;;;5.30;77.20;;;;;;5115658;28;20126;-78
2023/03/09 11:35:49;;;;;;;12.18;7.47;;;5.30;77.60;;;;;;5115589;28;20508;-78
2023/03/09 11:38:16;;;;;;;10.77;7.72;;;5.30;77.10;;;;;;5115700;28;20050;-76
2023/03/09 11:40:43;;;;;;;9.80;7.28;;;5.30;77.80;;;;;;5115567;28;20486;-77
2023/03/09 11:43:40;;;;;;;9.55;7.35;;;5.40;78.00;;;;;;5098921;28;20035;-77
2023/03/09 11:46:11;;;;;;;9.73;6.88;;;5.30;77.20;;;;;;5086443;28;20493;-77
2023/03/09 11:49:06;;;;;;;9.48;7.38;;;5.40;77.60;;;;;;5115699;28;20383;-76
2023/03/09 11:51:38;;;;;;;10.95;8.15;;;5.40;77.80;;;;;;5076808;28;20055;-77
2023/03/09 11:54:39;;;;;;;10.82;7.35;;;5.40;77.30;;;;;;5115493;28;20050;-77
2023/03/09 11:57:18;;;;;;;10.35;7.72;;;5.50;77.70;;;;;;5118610;27;20529;-77
2023/03/09 11:59:53;;;;;;;10.60;7.82;;;5.50;77.00;;;;;;5119371;27;20160;-77
2023/03/09 12:02:53;;;;;;;10.05;7.55;;;5.60;77.30;;;;;;5119514;27;20031;-76
2023/03/09 12:05:20;;;;;;;10.48;7.50;;;5.60;76.70;;;;;;5102426;27;20039;-76
2023/03/09 12:08:07;;;;;;;9.73;7.28;;;5.70;77.10;;;;;;5115338;28;20119;-77
2023/03/09 12:11:00;;;;;;;12.00;8.23;;;5.80;77.10;;;;;;5116145;28;20260;-76
2023/03/09 12:13:41;;;;;;;9.85;7.65;;;5.70;76.60;;;;;;5115720;28;20043;-76
2023/03/09 12:16:25;;;;;;;10.23;8.20;;;5.80;76.70;;;;;;5115719;28;20428;-77
2023/03/09 12:19:05;;;;;;;14.95;9.52;;;5.80;76.20;;;;;;5115474;28;20042;-77
2023/03/09 12:21:35;;;;;;;14.57;9.90;;;5.70;76.20;;;;;;5115735;28;20395;-77
2023/03/09 12:24:24;;;;;;;13.60;9.07;;;5.70;76.30;;;;;;5115463;28;20035;-76
2023/03/09 12:26:59;;;;;;;12.30;8.43;;;5.80;76.50;;;;;;5098289;28;20090;-76
2023/03/09 12:29:35;;;;;;;10.68;8.65;;;5.80;76.30;;;;;;5115125;28;20047;-77
2023/03/09 12:32:30;;;;;;;9.93;7.30;;;5.80;76.60;;;;;;5098108;28;20058;-77
2023/03/09 12:35:02;;;;;;;10.02;6.93;;;5.80;76.60;;;;;;5123113;27;20055;-76
2023/03/09 12:37:27;;;;;;;11.40;7.13;;;5.80;75.90;;;;;;5098020;28;20553;-77
2023/03/09 12:40:21;;;;;;;9.43;6.93;;;5.80;75.90;;;;;;5115071;28;20126;-77
2023/03/09 12:42:48;;;;;;;7.53;5.95;;;5.80;75.60;;;;;;5114900;28;20487;-76
2023/03/09 12:45:20;;;;;;;8.45;6.30;;;5.70;75.60;;;;;;5114750;28;20043;-77
2023/03/09 12:48:01;;;;;;;7.95;5.82;;;5.80;75.80;;;;;;5115037;28;20134;-77
2023/03/09 12:50:42;;;;;;;8.18;5.85;;;5.70;75.90;;;;;;5097924;28;20123;-77
2023/03/09 12:53:14;;;;;;;9.15;5.53;;;5.70;75.30;;;;;;5098011;28;20035;-77